TimeCST,TemperatureF,Dew PointF,Humidity,Sea Level PressureIn,VisibilityMPH,Wind Direction,Wind SpeedMPH,Gust SpeedMPH,PrecipitationIn,Events,Conditions,WindDirDegrees,DateUTC
12:15 AM,17.6,14.0,86,30.03,10.0,NNW,3.5,-,N/A,,Overcast,330,2012-03-05 06:15:00
12:35 AM,17.6,14.0,86,30.04,10.0,NW,3.5,-,N/A,,Mostly Cloudy,310,2012-03-05 06:35:00
12:55 AM,14.0,12.2,93,30.05,10.0,WNW,3.5,-,N/A,,Scattered Clouds,300,2012-03-05 06:55:00
1:15 AM,14.0,14.0,100,30.07,10.0,WNW,4.6,-,N/A,,Clear,290,2012-03-05 07:15:00
1:35 AM,12.2,10.4,92,30.08,10.0,West,3.5,-,N/A,,Clear,280,2012-03-05 07:35:00
1:55 AM,12.2,12.2,100,30.09,10.0,West,4.6,-,N/A,,Clear,280,2012-03-05 07:55:00
2:15 AM,14.0,12.2,93,30.10,10.0,West,3.5,-,N/A,,Scattered Clouds,280,2012-03-05 08:15:00
2:35 AM,14.0,12.2,93,30.10,10.0,West,5.8,-,N/A,,Overcast,280,2012-03-05 08:35:00
2:55 AM,14.0,12.2,93,30.11,10.0,West,4.6,-,N/A,,Overcast,280,2012-03-05 08:55:00
3:15 AM,15.8,14.0,93,30.11,10.0,WNW,3.5,-,N/A,,Overcast,290,2012-03-05 09:15:00
3:35 AM,14.0,12.2,93,30.12,10.0,West,5.8,-,N/A,,Overcast,280,2012-03-05 09:35:00
3:55 AM,14.0,12.2,93,30.13,10.0,West,4.6,-,N/A,,Overcast,280,2012-03-05 09:55:00
4:15 AM,14.0,12.2,93,30.14,10.0,WNW,3.5,-,N/A,,Mostly Cloudy,290,2012-03-05 10:15:00
4:35 AM,10.4,10.4,100,30.15,10.0,West,3.5,-,N/A,,Scattered Clouds,270,2012-03-05 10:35:00
5:45 AM,12.2,10.4,92,30.18,7.0,Calm,Calm,-,N/A,,Clear,0,2012-03-05 11:45:00
6:45 AM,8.6,6.8,92,30.22,5.0,Calm,Calm,-,N/A,,Clear,0,2012-03-05 12:45:00
8:45 AM,17.6,17.6,100,30.29,10.0,Calm,Calm,-,N/A,,Clear,0,2012-03-05 14:45:00
9:45 AM,21.2,17.6,86,30.30,10.0,West,6.9,-,N/A,,Scattered Clouds,280,2012-03-05 15:45:00
10:45 AM,23.0,15.8,74,30.31,10.0,West,3.5,-,N/A,,Clear,280,2012-03-05 16:45:00
11:45 AM,24.8,12.2,59,30.32,10.0,West,5.8,-,N/A,,Overcast,270,2012-03-05 17:45:00
12:45 PM,26.6,14.0,59,30.31,10.0,SSW,5.8,-,N/A,,Scattered Clouds,210,2012-03-05 18:45:00
2:45 PM,28.4,14.0,55,30.30,10.0,South,8.1,-,N/A,,Scattered Clouds,170,2012-03-05 20:45:00
3:45 PM,28.4,15.8,59,30.29,10.0,South,9.2,-,N/A,,Clear,180,2012-03-05 21:45:00
4:45 PM,28.4,17.6,64,30.27,10.0,South,9.2,-,N/A,,Overcast,180,2012-03-05 22:45:00
5:45 PM,26.6,17.6,69,30.26,10.0,South,9.2,-,N/A,,Overcast,180,2012-03-05 23:45:00
6:45 PM,26.6,17.6,69,30.25,10.0,South,11.5,-,N/A,,Overcast,170,2012-03-06 00:45:00
7:45 PM,26.6,19.4,74,30.24,10.0,SSE,9.2,-,N/A,,Scattered Clouds,150,2012-03-06 01:45:00
8:15 PM,28.4,21.2,74,30.24,10.0,SE,9.2,-,N/A,,Clear,140,2012-03-06 02:15:00
8:35 PM,28.4,21.2,74,30.24,10.0,SSE,8.1,-,N/A,,Clear,150,2012-03-06 02:35:00
8:45 PM,26.6,19.4,74,30.24,10.0,SE,6.9,-,N/A,,Scattered Clouds,140,2012-03-06 02:45:00
8:55 PM,26.6,21.2,80,30.24,10.0,SE,6.9,-,N/A,,Clear,140,2012-03-06 02:55:00
9:15 PM,28.4,21.2,74,30.23,10.0,SSE,5.8,-,N/A,,Clear,150,2012-03-06 03:15:00
9:35 PM,28.4,21.2,74,30.22,10.0,SSE,5.8,-,N/A,,Clear,150,2012-03-06 03:35:00
9:55 PM,28.4,21.2,74,30.21,10.0,SSE,8.1,-,N/A,,Clear,160,2012-03-06 03:55:00
10:15 PM,28.4,21.2,74,30.20,10.0,SSE,9.2,-,N/A,,Clear,160,2012-03-06 04:15:00
10:35 PM,28.4,21.2,74,30.20,10.0,South,8.1,-,N/A,,Clear,170,2012-03-06 04:35:00
10:55 PM,28.4,21.2,74,30.20,10.0,South,8.1,-,N/A,,Clear,180,2012-03-06 04:55:00
11:15 PM,28.4,23.0,80,30.20,10.0,South,4.6,-,N/A,,Clear,190,2012-03-06 05:15:00
11:35 PM,28.4,23.0,80,30.19,10.0,South,8.1,-,N/A,,Clear,180,2012-03-06 05:35:00